Terminal Aerodrome Forecast
Issued by NWS

Home | Current Version | Previous Version | Graphics & Text | Print | Product List | Glossary On
Versions: 1 2 3 4 5 6 7 8 9 10 11 12 13 14 15 16 17 18 19 20 21 22 23 24 25
000
FTUS43 KBIS 272300 AAA
TAFDIK
TAF AMD
KDIK 272321Z 2723/2824 34013G24KT P6SM SCT080
     FM280300 06004KT P6SM SCT080
     FM280600 12005KT 2SM BR SCT150
     FM281200 18009KT P6SM SCT140
     FM282100 22017G26KT P6SM VCSH BKN100=

USA.gov is the U.S. government's official web portal to all federal, state and local government web resources and services.